Time;durP1;ratioP1;P1;durP2;ratioP2;P2;SDS_P1;SDS_P2;PMS_P1;PMS_P2;Temp;Humidity;BMP_temperature;BMP_pressure;BME280_temperature;BME280_humidity;BME280_pressure;Samples;Min_cycle;Max_cycle;Signal;HPM_P1;HPM_P2
2023/05/28 00:01:08;;;;;;;6.18;2.15;;;21.50;60.00;;;;;;5071625;28;20080;-61
2023/05/28 00:03:35;;;;;;;4.47;1.77;;;21.50;60.00;;;;;;5068465;28;20052;-61
2023/05/28 00:06:01;;;;;;;5.30;1.77;;;21.50;60.00;;;;;;5071385;28;20488;-61
2023/05/28 00:08:26;;;;;;;4.53;1.80;;;21.50;60.00;;;;;;5071317;28;20491;-61
2023/05/28 00:10:59;;;;;;;5.05;2.35;;;21.50;60.00;;;;;;5071034;28;20452;-60
2023/05/28 00:13:28;;;;;;;5.15;2.10;;;21.50;60.00;;;;;;5070193;28;20056;-61
2023/05/28 00:15:53;;;;;;;4.40;2.03;;;21.50;60.00;;;;;;5071676;28;20048;-61
2023/05/28 00:18:19;;;;;;;5.82;1.95;;;21.50;60.00;;;;;;5070326;28;20045;-61
2023/05/28 00:20:45;;;;;;;5.47;2.03;;;21.50;60.00;;;;;;5071572;28;20033;-61
2023/05/28 00:23:11;;;;;;;5.82;2.10;;;21.40;59.90;;;;;;5071420;28;20045;-61
2023/05/28 00:25:36;;;;;;;4.70;2.00;;;21.40;59.90;;;;;;5071990;28;20132;-61
2023/05/28 00:28:02;;;;;;;5.03;2.05;;;21.50;60.00;;;;;;5073628;28;20048;-61
2023/05/28 00:30:29;;;;;;;5.38;2.00;;;21.50;60.00;;;;;;5074441;28;20048;-61
2023/05/28 00:32:55;;;;;;;4.73;1.90;;;21.40;59.90;;;;;;5074371;28;20048;-62
2023/05/28 00:35:20;;;;;;;5.82;2.20;;;21.40;59.90;;;;;;5074585;28;20051;-61
2023/05/28 00:37:46;;;;;;;6.15;2.13;;;21.40;59.90;;;;;;5073437;28;20044;-61
2023/05/28 00:40:11;;;;;;;4.68;1.95;;;21.40;59.90;;;;;;5073689;28;20043;-61
2023/05/28 00:42:37;;;;;;;5.85;2.08;;;21.40;59.90;;;;;;5074859;28;20044;-61
2023/05/28 00:45:03;;;;;;;4.03;1.65;;;21.40;59.90;;;;;;5063360;28;20040;-61
2023/05/28 00:47:28;;;;;;;3.70;1.90;;;21.40;59.80;;;;;;5074063;28;20070;-61
2023/05/28 00:49:55;;;;;;;4.38;2.00;;;21.40;59.80;;;;;;5073485;28;20033;-61
2023/05/28 00:52:21;;;;;;;6.13;2.05;;;21.40;59.80;;;;;;5073845;28;20055;-62
2023/05/28 00:54:47;;;;;;;4.18;1.98;;;21.40;59.80;;;;;;5073529;28;20038;-61
2023/05/28 00:57:13;;;;;;;6.00;1.92;;;21.40;59.80;;;;;;5074170;28;20483;-61
2023/05/28 00:59:39;;;;;;;4.38;1.88;;;21.40;59.80;;;;;;5085783;28;20040;-61
2023/05/28 01:02:05;;;;;;;4.68;1.90;;;21.40;59.80;;;;;;5074383;28;20497;-60
2023/05/28 01:04:33;;;;;;;4.82;1.95;;;21.30;59.70;;;;;;5078856;28;20126;-61
2023/05/28 01:06:59;;;;;;;5.70;1.85;;;21.30;59.70;;;;;;5073778;28;20041;-61
2023/05/28 01:09:25;;;;;;;6.13;2.40;;;21.30;59.70;;;;;;5073918;28;20048;-61
2023/05/28 01:11:52;;;;;;;4.13;1.88;;;21.30;59.70;;;;;;5073166;28;20117;-61
2023/05/28 01:14:18;;;;;;;4.25;1.75;;;21.30;59.70;;;;;;5055348;28;20055;-60
2023/05/28 01:16:44;;;;;;;4.50;2.20;;;21.30;59.70;;;;;;5036471;28;20049;-60
2023/05/28 01:19:11;;;;;;;4.85;2.00;;;21.30;59.70;;;;;;5052750;28;20052;-61
2023/05/28 01:21:41;;;;;;;4.15;1.85;;;21.30;59.70;;;;;;5052507;28;20397;-61
2023/05/28 01:24:06;;;;;;;4.55;2.00;;;21.30;59.60;;;;;;5053624;28;20500;-61
2023/05/28 01:26:32;;;;;;;4.43;1.90;;;21.30;59.60;;;;;;5055532;28;20040;-62
2023/05/28 01:28:57;;;;;;;4.93;2.00;;;21.30;59.60;;;;;;5055277;28;20048;-61
2023/05/28 01:31:23;;;;;;;5.25;2.30;;;21.30;59.70;;;;;;5073320;28;20040;-61
2023/05/28 01:33:49;;;;;;;5.05;2.30;;;21.30;59.60;;;;;;5073950;28;20132;-61
2023/05/28 01:36:20;;;;;;;6.28;1.85;;;21.30;59.60;;;;;;5072494;28;20041;-61
2023/05/28 01:38:49;;;;;;;6.10;1.90;;;21.30;59.60;;;;;;5072441;28;20072;-61
2023/05/28 01:41:14;;;;;;;4.95;2.03;;;21.30;59.60;;;;;;5071479;28;20048;-61
2023/05/28 01:43:41;;;;;;;5.60;2.13;;;21.20;59.50;;;;;;5055766;28;20044;-61
2023/05/28 01:46:06;;;;;;;4.18;1.90;;;21.20;59.50;;;;;;5052106;28;20090;-60
2023/05/28 01:48:32;;;;;;;5.03;1.90;;;21.20;59.50;;;;;;5051490;28;20040;-61
2023/05/28 01:50:57;;;;;;;4.93;2.22;;;21.20;59.50;;;;;;5076812;28;20051;-61
2023/05/28 01:53:23;;;;;;;4.97;1.88;;;21.20;59.50;;;;;;5073129;28;20036;-61
2023/05/28 01:55:48;;;;;;;5.75;1.77;;;21.20;59.50;;;;;;5072263;28;20052;-61
2023/05/28 01:58:14;;;;;;;5.57;2.42;;;21.20;59.40;;;;;;5074798;28;20136;-61
2023/05/28 02:00:43;;;;;;;5.10;1.88;;;21.20;59.40;;;;;;5083875;28;20468;-61
2023/05/28 02:03:11;;;;;;;5.10;2.05;;;21.20;59.40;;;;;;5050995;28;20079;-61
2023/05/28 02:05:37;;;;;;;3.90;1.80;;;21.20;59.40;;;;;;5058808;28;20480;-61
2023/05/28 02:08:02;;;;;;;5.18;2.05;;;21.20;59.40;;;;;;5072755;28;20066;-61
2023/05/28 02:10:28;;;;;;;5.20;2.10;;;21.20;59.40;;;;;;5072053;28;20045;-61
2023/05/28 02:12:54;;;;;;;3.95;2.03;;;21.20;59.30;;;;;;5071826;28;20097;-61
2023/05/28 02:15:20;;;;;;;4.53;2.10;;;21.20;59.40;;;;;;5088712;28;20049;-60
2023/05/28 02:17:45;;;;;;;3.65;1.60;;;21.10;59.30;;;;;;5072207;28;20127;-61
2023/05/28 02:20:11;;;;;;;4.55;2.00;;;21.20;59.30;;;;;;5072721;28;20190;-61
2023/05/28 02:22:37;;;;;;;4.38;1.88;;;21.10;59.20;;;;;;5084248;28;20105;-61
2023/05/28 02:25:03;;;;;;;5.90;2.17;;;21.10;59.30;;;;;;5071844;28;20044;-61
2023/05/28 02:27:29;;;;;;;4.15;1.92;;;21.10;59.20;;;;;;5072472;28;20048;-60
2023/05/28 02:29:55;;;;;;;4.93;2.00;;;21.20;59.30;;;;;;5072994;28;20136;-61
2023/05/28 02:32:21;;;;;;;4.55;1.75;;;21.10;59.20;;;;;;5071595;28;20052;-60
2023/05/28 02:34:46;;;;;;;4.90;1.77;;;21.10;59.20;;;;;;5072881;28;20158;-61
2023/05/28 02:37:12;;;;;;;6.00;1.85;;;21.10;59.20;;;;;;5072634;28;20545;-61
2023/05/28 02:39:37;;;;;;;5.82;2.40;;;21.10;59.20;;;;;;5071879;28;20041;-60
2023/05/28 02:42:03;;;;;;;4.70;2.40;;;21.10;59.20;;;;;;5072721;28;20044;-60
2023/05/28 02:44:29;;;;;;;5.60;1.80;;;21.10;59.20;;;;;;5071775;28;20194;-61
2023/05/28 02:46:55;;;;;;;6.82;2.20;;;21.10;59.10;;;;;;5072556;28;20110;-61
2023/05/28 02:49:20;;;;;;;4.35;1.77;;;21.10;59.10;;;;;;5071797;28;20043;-60
2023/05/28 02:51:46;;;;;;;6.40;2.40;;;21.10;59.20;;;;;;5071561;28;20040;-61
2023/05/28 02:54:11;;;;;;;5.03;2.10;;;21.00;59.10;;;;;;5072334;28;20484;-60
2023/05/28 02:56:37;;;;;;;4.93;2.00;;;21.10;59.10;;;;;;5072506;28;20415;-60
2023/05/28 02:59:02;;;;;;;4.28;1.95;;;21.00;59.00;;;;;;5071969;28;20123;-61
2023/05/28 03:01:28;;;;;;;7.22;2.53;;;21.00;59.00;;;;;;5071840;28;20040;-61
2023/05/28 03:03:53;;;;;;;3.72;1.77;;;21.00;59.00;;;;;;5072336;28;20045;-61
2023/05/28 03:06:20;;;;;;;4.20;1.92;;;21.10;59.00;;;;;;5070923;28;20112;-61
2023/05/28 03:08:45;;;;;;;4.47;2.00;;;21.00;59.00;;;;;;5072367;28;20116;-61
2023/05/28 03:11:11;;;;;;;4.85;1.85;;;21.00;59.00;;;;;;5071679;28;20119;-61
2023/05/28 03:13:36;;;;;;;5.32;2.03;;;21.00;59.00;;;;;;5071793;28;20036;-61
2023/05/28 03:16:02;;;;;;;4.03;1.85;;;21.00;59.00;;;;;;5072297;28;20036;-61
2023/05/28 03:18:27;;;;;;;4.05;2.10;;;21.00;59.00;;;;;;5072115;28;20044;-60
2023/05/28 03:20:53;;;;;;;4.82;2.13;;;21.00;59.00;;;;;;5071458;28;20519;-60
2023/05/28 03:23:19;;;;;;;5.78;1.98;;;20.90;58.90;;;;;;5072089;28;20488;-61
2023/05/28 03:25:44;;;;;;;5.20;1.88;;;20.90;58.90;;;;;;5070681;28;20048;-61
2023/05/28 03:28:10;;;;;;;5.72;1.88;;;21.00;59.00;;;;;;5069757;28;20049;-60
2023/05/28 03:30:35;;;;;;;4.57;2.10;;;20.90;58.90;;;;;;5083971;28;20044;-61
2023/05/28 03:33:01;;;;;;;5.20;2.42;;;20.90;58.90;;;;;;5084007;28;20544;-61
2023/05/28 03:35:26;;;;;;;4.88;2.25;;;20.90;58.90;;;;;;5091453;28;20070;-61
2023/05/28 03:37:52;;;;;;;5.03;2.13;;;20.90;58.90;;;;;;5070662;28;20032;-61
2023/05/28 03:40:18;;;;;;;4.28;1.77;;;20.90;58.90;;;;;;5071686;28;20060;-61
2023/05/28 03:42:43;;;;;;;4.00;2.05;;;20.90;58.90;;;;;;5070769;28;20133;-61
2023/05/28 03:45:09;;;;;;;4.75;2.00;;;20.90;58.80;;;;;;5071046;28;20072;-62
2023/05/28 03:47:35;;;;;;;4.63;2.13;;;20.90;58.80;;;;;;5071332;28;20047;-61
2023/05/28 03:50:01;;;;;;;4.80;1.95;;;20.90;58.80;;;;;;5070949;28;20083;-61
2023/05/28 03:52:27;;;;;;;4.25;2.00;;;20.90;58.80;;;;;;5070287;28;20480;-61
2023/05/28 03:54:52;;;;;;;3.70;1.88;;;20.90;58.80;;;;;;5069618;28;20549;-61
2023/05/28 03:57:18;;;;;;;5.55;2.10;;;20.90;58.80;;;;;;5070698;28;20044;-61
2023/05/28 03:59:43;;;;;;;5.40;2.20;;;20.90;58.80;;;;;;5071661;28;20048;-62
2023/05/28 04:02:09;;;;;;;4.80;2.00;;;20.90;58.80;;;;;;5072331;28;20554;-61
2023/05/28 04:04:34;;;;;;;7.85;2.17;;;20.90;58.80;;;;;;5065228;28;20491;-60
2023/05/28 04:07:00;;;;;;;5.75;1.73;;;20.90;58.90;;;;;;5074675;28;20047;-60
2023/05/28 04:09:27;;;;;;;6.97;2.28;;;20.90;58.80;;;;;;5060240;28;20088;-59
2023/05/28 04:11:52;;;;;;;4.55;1.80;;;20.90;58.90;;;;;;5055477;28;20512;-60
2023/05/28 04:14:18;;;;;;;9.57;2.10;;;20.90;58.30;;;;;;5055089;28;20049;-61
2023/05/28 04:16:43;;;;;;;5.03;2.13;;;20.90;58.80;;;;;;5062543;28;20411;-61
2023/05/28 04:19:09;;;;;;;8.23;2.28;;;20.90;58.80;;;;;;5074589;28;20036;-61
2023/05/28 04:21:35;;;;;;;8.00;2.20;;;20.90;58.90;;;;;;5074233;28;20132;-58
2023/05/28 04:24:00;;;;;;;5.88;1.92;;;20.90;58.90;;;;;;5074190;28;20514;-61
2023/05/28 04:26:26;;;;;;;7.10;2.53;;;20.90;59.00;;;;;;5074671;28;20117;-61
2023/05/28 04:28:52;;;;;;;7.57;2.67;;;20.90;59.20;;;;;;5075188;28;20052;-61
2023/05/28 04:31:18;;;;;;;7.15;2.08;;;21.00;59.20;;;;;;5073403;28;20045;-61
2023/05/28 04:33:46;;;;;;;8.70;2.53;;;21.00;59.10;;;;;;5073866;28;20120;-61
2023/05/28 04:36:13;;;;;;;7.95;2.60;;;21.00;58.60;;;;;;5075137;28;20048;-61
2023/05/28 04:38:39;;;;;;;7.70;2.58;;;20.90;58.30;;;;;;5074505;28;20385;-60
2023/05/28 04:41:05;;;;;;;7.65;2.50;;;21.00;58.30;;;;;;5075537;28;20045;-61
2023/05/28 04:43:31;;;;;;;6.95;2.40;;;20.90;58.30;;;;;;5075353;28;20090;-61
2023/05/28 04:45:58;;;;;;;7.45;2.20;;;20.90;58.30;;;;;;5074507;28;20047;-60
2023/05/28 04:48:25;;;;;;;7.13;2.23;;;20.90;58.30;;;;;;5074859;28;20074;-61
2023/05/28 04:50:51;;;;;;;10.32;2.40;;;20.90;58.30;;;;;;5074972;28;20303;-61
2023/05/28 04:53:17;;;;;;;6.85;2.17;;;20.90;58.40;;;;;;5074209;28;20131;-61
2023/05/28 04:55:44;;;;;;;7.78;2.45;;;20.90;58.40;;;;;;5075172;28;20127;-62
2023/05/28 04:58:09;;;;;;;7.25;2.47;;;20.90;58.40;;;;;;5074081;28;20048;-61
2023/05/28 05:00:35;;;;;;;4.97;2.13;;;20.90;58.40;;;;;;5074929;28;20052;-61
2023/05/28 05:03:01;;;;;;;7.28;2.40;;;20.90;58.40;;;;;;5074738;28;20044;-61
2023/05/28 05:05:27;;;;;;;7.05;2.30;;;20.90;58.40;;;;;;5072661;28;20062;-61
2023/05/28 05:07:52;;;;;;;7.70;2.30;;;20.90;58.50;;;;;;5074932;28;20492;-61
2023/05/28 05:10:18;;;;;;;6.80;1.85;;;20.80;58.40;;;;;;5074467;28;20052;-61
2023/05/28 05:12:43;;;;;;;7.03;2.35;;;20.90;58.50;;;;;;5073774;28;20047;-61
2023/05/28 05:15:09;;;;;;;8.13;2.30;;;20.90;58.50;;;;;;5074230;28;20036;-61
2023/05/28 05:17:35;;;;;;;4.95;2.17;;;20.80;58.50;;;;;;5074450;28;20553;-61
2023/05/28 05:20:02;;;;;;;7.28;2.38;;;20.90;58.50;;;;;;5073679;28;20037;-61
2023/05/28 05:22:28;;;;;;;5.40;2.30;;;20.90;58.50;;;;;;5074415;28;20040;-61
2023/05/28 05:24:53;;;;;;;6.47;2.13;;;20.90;58.40;;;;;;5074406;28;20395;-61
2023/05/28 05:27:19;;;;;;;6.75;2.10;;;20.90;58.40;;;;;;5071892;28;20397;-61
2023/05/28 05:29:44;;;;;;;4.30;2.13;;;20.90;58.40;;;;;;5074453;28;20067;-61
2023/05/28 05:32:10;;;;;;;4.50;2.33;;;20.90;58.40;;;;;;5074031;28;20056;-61
2023/05/28 05:34:36;;;;;;;6.28;2.10;;;20.90;58.40;;;;;;5071966;28;20045;-61
2023/05/28 05:37:01;;;;;;;6.70;2.15;;;20.90;58.30;;;;;;5074392;28;20036;-61
2023/05/28 05:39:28;;;;;;;5.55;2.00;;;21.00;58.40;;;;;;5074005;28;20442;-61
2023/05/28 05:41:53;;;;;;;7.00;2.40;;;21.00;58.40;;;;;;5073477;28;20049;-61
2023/05/28 05:44:19;;;;;;;6.80;2.10;;;21.00;58.40;;;;;;5073827;28;20406;-61
2023/05/28 05:46:44;;;;;;;4.57;2.20;;;21.00;58.40;;;;;;5073945;28;20084;-61
2023/05/28 05:49:10;;;;;;;4.90;2.30;;;21.00;58.40;;;;;;5072940;28;20049;-61
2023/05/28 05:51:36;;;;;;;5.28;2.20;;;21.00;58.30;;;;;;5074006;28;20532;-61
2023/05/28 05:54:02;;;;;;;6.18;2.42;;;21.00;58.30;;;;;;5074070;28;20036;-61
2023/05/28 05:56:28;;;;;;;4.35;2.00;;;21.00;58.30;;;;;;5072773;28;20586;-61
2023/05/28 05:58:53;;;;;;;4.00;2.00;;;21.00;58.30;;;;;;5073880;28;20048;-61
2023/05/28 06:01:20;;;;;;;4.65;1.95;;;21.00;58.30;;;;;;5073310;28;20041;-61
2023/05/28 06:03:46;;;;;;;5.18;2.00;;;21.00;58.40;;;;;;5073047;28;20434;-60
2023/05/28 06:06:11;;;;;;;5.85;2.25;;;21.00;58.30;;;;;;5073109;28;20502;-61
2023/05/28 06:08:37;;;;;;;6.80;2.20;;;21.00;58.30;;;;;;5073015;28;20040;-61
2023/05/28 06:11:03;;;;;;;6.10;2.50;;;21.00;58.30;;;;;;5073703;28;20127;-61
2023/05/28 06:13:28;;;;;;;6.28;2.38;;;21.00;58.30;;;;;;5072306;28;20065;-61
2023/05/28 06:15:54;;;;;;;3.83;1.77;;;21.00;58.30;;;;;;5072544;28;20041;-61
2023/05/28 06:18:21;;;;;;;5.47;1.90;;;21.00;58.30;;;;;;5073075;28;20515;-61
2023/05/28 06:20:49;;;;;;;6.82;2.28;;;21.10;58.30;;;;;;5073581;28;20052;-60
2023/05/28 06:23:14;;;;;;;7.25;2.40;;;21.10;58.30;;;;;;5072198;28;20395;-61
2023/05/28 06:25:40;;;;;;;5.53;2.10;;;21.10;58.30;;;;;;5073273;28;20498;-61
2023/05/28 06:28:06;;;;;;;5.20;2.15;;;21.10;58.30;;;;;;5072818;28;20040;-61
2023/05/28 06:30:31;;;;;;;5.18;2.10;;;21.10;58.30;;;;;;5072445;28;20499;-61
2023/05/28 06:32:57;;;;;;;5.25;2.00;;;21.10;58.20;;;;;;5073170;28;20041;-61
2023/05/28 06:35:22;;;;;;;5.40;2.17;;;21.20;58.30;;;;;;5072902;28;20042;-61
2023/05/28 06:37:48;;;;;;;7.70;2.13;;;21.10;58.20;;;;;;5072297;28;20045;-61
2023/05/28 06:40:14;;;;;;;4.65;2.08;;;21.20;58.20;;;;;;5072834;28;20043;-60
2023/05/28 06:42:39;;;;;;;6.32;2.15;;;21.20;58.30;;;;;;5072928;28;20048;-61
2023/05/28 06:45:06;;;;;;;6.28;2.33;;;21.20;58.20;;;;;;5072319;28;20041;-61
2023/05/28 06:47:31;;;;;;;5.78;2.10;;;21.20;58.20;;;;;;5072618;28;20098;-61
2023/05/28 06:49:57;;;;;;;7.38;2.90;;;21.20;58.20;;;;;;5072794;28;20044;-61
2023/05/28 06:52:23;;;;;;;4.90;2.08;;;21.20;58.20;;;;;;5072324;28;20044;-61
2023/05/28 06:54:49;;;;;;;6.05;2.17;;;21.20;58.20;;;;;;5073065;28;20044;-61
2023/05/28 06:57:15;;;;;;;5.40;2.28;;;21.20;58.20;;;;;;5072497;28;20131;-61
2023/05/28 06:59:40;;;;;;;5.47;2.13;;;21.20;58.20;;;;;;5070756;28;20067;-61
2023/05/28 07:02:06;;;;;;;4.38;1.92;;;21.20;58.20;;;;;;5072259;28;20045;-61
2023/05/28 07:04:32;;;;;;;5.00;1.95;;;21.20;58.10;;;;;;5072456;28;20824;-61
2023/05/28 07:06:57;;;;;;;7.80;2.67;;;21.30;58.20;;;;;;5071850;28;20496;-61
2023/05/28 07:09:23;;;;;;;4.65;1.98;;;21.20;58.10;;;;;;5072511;28;20041;-61
2023/05/28 07:11:48;;;;;;;4.38;2.10;;;21.20;58.10;;;;;;5072109;28;20396;-61
2023/05/28 07:14:14;;;;;;;4.70;2.28;;;21.20;58.10;;;;;;5071140;28;20174;-61
2023/05/28 07:16:39;;;;;;;5.60;2.00;;;21.20;58.20;;;;;;5072531;28;20102;-61
2023/05/28 07:19:05;;;;;;;5.13;2.03;;;21.20;58.10;;;;;;5070373;28;20472;-61
2023/05/28 07:21:32;;;;;;;5.15;2.30;;;21.20;58.20;;;;;;5071254;28;20045;-61
2023/05/28 07:23:57;;;;;;;5.78;2.22;;;21.20;58.10;;;;;;5072675;28;20087;-61
2023/05/28 07:26:23;;;;;;;6.47;1.85;;;21.30;58.20;;;;;;5071671;28;20068;-61
2023/05/28 07:28:48;;;;;;;4.68;2.38;;;21.30;58.20;;;;;;5072339;28;20052;-61
2023/05/28 07:31:14;;;;;;;6.32;2.30;;;21.30;58.20;;;;;;5072393;28;20052;-61
2023/05/28 07:33:40;;;;;;;6.07;2.13;;;21.30;58.20;;;;;;5071594;28;20202;-61
2023/05/28 07:36:06;;;;;;;5.75;2.22;;;21.30;58.20;;;;;;5074489;28;20036;-61
2023/05/28 07:38:31;;;;;;;4.13;2.17;;;21.30;58.20;;;;;;5076684;28;20098;-61
2023/05/28 07:40:57;;;;;;;4.18;2.00;;;21.30;58.20;;;;;;5075565;28;20048;-61
2023/05/28 07:43:23;;;;;;;5.47;2.22;;;21.30;58.10;;;;;;5076333;28;20484;-61
2023/05/28 07:45:48;;;;;;;4.85;2.20;;;21.30;58.10;;;;;;5076448;28;20054;-61
2023/05/28 07:48:14;;;;;;;5.15;2.35;;;21.30;58.20;;;;;;5073836;28;20075;-61
2023/05/28 07:50:40;;;;;;;5.03;1.80;;;21.30;58.10;;;;;;5076517;28;20052;-61
2023/05/28 07:53:06;;;;;;;7.28;2.20;;;21.40;58.10;;;;;;5075856;28;20090;-61
2023/05/28 07:55:32;;;;;;;6.03;2.17;;;21.40;58.10;;;;;;5075580;28;20045;-61
2023/05/28 07:57:58;;;;;;;6.85;2.40;;;21.40;58.10;;;;;;5076288;28;20040;-61
2023/05/28 08:00:27;;;;;;;5.47;1.92;;;21.40;58.10;;;;;;5075893;28;20115;-61
2023/05/28 08:02:52;;;;;;;4.97;2.28;;;21.40;58.10;;;;;;5075431;28;20040;-61
2023/05/28 08:05:18;;;;;;;4.82;2.20;;;21.50;58.80;;;;;;5075812;28;20167;-61
2023/05/28 08:07:44;;;;;;;5.32;2.25;;;21.40;58.10;;;;;;5076050;28;20041;-61
2023/05/28 08:10:10;;;;;;;5.90;2.35;;;21.50;58.10;;;;;;5075039;28;20071;-61
2023/05/28 08:12:35;;;;;;;5.00;1.95;;;21.50;58.10;;;;;;5076030;28;20157;-60
2023/05/28 08:15:01;;;;;;;5.07;1.95;;;21.50;58.10;;;;;;5075148;28;20039;-61
2023/05/28 08:17:29;;;;;;;6.50;2.03;;;21.50;58.10;;;;;;5075589;28;20480;-61
2023/05/28 08:19:55;;;;;;;4.90;2.22;;;21.50;58.00;;;;;;5075625;28;20052;-61
2023/05/28 08:22:20;;;;;;;5.47;2.25;;;21.50;58.00;;;;;;5074668;28;20044;-61
2023/05/28 08:24:46;;;;;;;4.72;2.13;;;21.50;58.00;;;;;;5075676;28;20036;-61
2023/05/28 08:27:11;;;;;;;5.18;2.40;;;21.50;58.00;;;;;;5075211;28;20052;-61
2023/05/28 08:29:37;;;;;;;4.45;2.20;;;21.60;58.00;;;;;;5074596;28;20047;-61
2023/05/28 08:32:03;;;;;;;5.78;2.53;;;21.60;58.00;;;;;;5075568;28;20051;-61
2023/05/28 08:34:28;;;;;;;5.43;2.30;;;21.60;58.00;;;;;;5075291;28;20071;-61
2023/05/28 08:36:54;;;;;;;4.45;2.20;;;21.60;57.90;;;;;;5074871;28;20119;-60
2023/05/28 08:39:20;;;;;;;4.07;1.90;;;21.60;57.90;;;;;;5074963;28;20037;-61
2023/05/28 08:41:46;;;;;;;5.93;2.20;;;21.60;57.90;;;;;;5075283;28;20151;-62
2023/05/28 08:44:11;;;;;;;4.55;2.20;;;21.60;57.90;;;;;;5073144;28;20468;-61
2023/05/28 08:46:37;;;;;;;4.70;1.88;;;21.60;57.90;;;;;;5057014;28;20070;-61
2023/05/28 08:49:03;;;;;;;4.63;2.08;;;21.70;57.90;;;;;;5075206;28;20047;-61
2023/05/28 08:51:32;;;;;;;5.75;2.30;;;21.70;57.90;;;;;;5073991;28;20040;-61
2023/05/28 08:53:59;;;;;;;4.75;2.15;;;21.70;57.90;;;;;;5074077;28;20044;-61
2023/05/28 08:56:25;;;;;;;4.60;2.22;;;21.70;57.80;;;;;;5074692;28;20594;-61
2023/05/28 08:58:51;;;;;;;6.22;2.40;;;21.70;57.80;;;;;;5073114;28;20049;-62
2023/05/28 09:01:16;;;;;;;5.13;2.00;;;21.70;57.80;;;;;;5074880;28;20050;-61
2023/05/28 09:03:42;;;;;;;5.03;2.40;;;21.70;57.80;;;;;;5074646;28;20029;-61
2023/05/28 09:06:08;;;;;;;5.50;2.25;;;21.70;57.70;;;;;;5073608;28;20041;-61
2023/05/28 09:08:34;;;;;;;6.10;2.38;;;21.80;57.70;;;;;;5073856;28;20080;-61
2023/05/28 09:11:13;;;;;;;4.70;1.95;;;21.70;57.70;;;;;;5074735;28;20467;-61
2023/05/28 09:13:45;;;;;;;6.95;2.33;;;21.80;57.70;;;;;;5074656;28;20094;-61
2023/05/28 09:16:11;;;;;;;6.18;2.35;;;21.70;57.70;;;;;;5074633;28;20067;-61
2023/05/28 09:18:37;;;;;;;5.93;2.63;;;21.80;57.70;;;;;;5073885;28;20805;-61
2023/05/28 09:21:12;;;;;;;5.78;2.35;;;21.80;57.70;;;;;;5074518;28;20043;-61
2023/05/28 09:23:41;;;;;;;4.07;2.28;;;21.80;57.70;;;;;;5074508;28;20041;-62
2023/05/28 09:26:10;;;;;;;5.57;2.08;;;21.80;57.60;;;;;;5073381;28;20078;-61
2023/05/28 09:28:36;;;;;;;4.72;2.22;;;21.80;57.60;;;;;;5074279;28;20060;-61
2023/05/28 09:31:05;;;;;;;6.20;2.10;;;21.80;57.60;;;;;;5073035;28;20113;-61
2023/05/28 09:33:32;;;;;;;6.65;2.65;;;21.80;57.60;;;;;;5073505;28;20040;-61
2023/05/28 09:36:01;;;;;;;4.22;2.15;;;21.80;57.50;;;;;;5056404;28;20055;-61
2023/05/28 09:38:27;;;;;;;5.43;2.25;;;21.80;57.50;;;;;;5073558;28;20404;-61
2023/05/28 09:40:56;;;;;;;5.47;2.50;;;21.90;57.60;;;;;;5073611;28;20036;-61
2023/05/28 09:43:30;;;;;;;6.40;2.38;;;21.90;57.60;;;;;;5073678;28;20131;-61
2023/05/28 09:46:08;;;;;;;3.97;2.10;;;21.80;57.50;;;;;;5074221;28;20052;-61
2023/05/28 09:48:34;;;;;;;5.85;2.47;;;21.90;57.50;;;;;;5073017;28;20075;-61
2023/05/28 09:51:02;;;;;;;5.07;2.33;;;21.90;57.50;;;;;;5074077;28;20072;-61
2023/05/28 09:53:28;;;;;;;;;;;21.90;57.50;;;;;;5072325;28;20040;-61
2023/05/28 09:55:53;;;;;;;4.10;2.03;;;21.80;57.50;;;;;;5072599;28;19920;-61
2023/05/28 09:58:19;;;;;;;5.05;2.20;;;21.90;57.50;;;;;;5055117;28;20054;-61
2023/05/28 10:00:47;;;;;;;4.28;2.33;;;21.90;57.50;;;;;;5055396;28;20045;-62
2023/05/28 10:03:35;;;;;;;5.93;2.35;;;21.90;57.50;;;;;;5072371;28;20048;-61
2023/05/28 10:06:06;;;;;;;7.03;2.40;;;21.90;57.50;;;;;;5072630;28;20135;-62
2023/05/28 10:08:37;;;;;;;6.40;2.60;;;21.90;57.50;;;;;;5071987;28;20049;-61
2023/05/28 10:11:03;;;;;;;5.13;2.45;;;21.90;57.50;;;;;;5073544;28;20036;-61
2023/05/28 10:13:28;;;;;;;5.07;2.45;;;21.90;57.50;;;;;;5071846;28;20515;-61
2023/05/28 10:15:54;;;;;;;5.72;2.55;;;21.90;57.50;;;;;;5054714;28;20041;-61
2023/05/28 10:18:20;;;;;;;4.63;1.90;;;21.90;57.50;;;;;;5071888;28;20036;-61
2023/05/28 10:20:46;;;;;;;5.35;2.28;;;21.90;57.50;;;;;;5072278;28;20481;-61
2023/05/28 10:23:11;;;;;;;4.57;2.50;;;21.90;57.50;;;;;;5071182;28;20033;-61
2023/05/28 10:25:37;;;;;;;6.70;2.65;;;21.90;57.50;;;;;;5055277;28;20086;-61
2023/05/28 10:28:02;;;;;;;5.25;2.95;;;21.90;57.50;;;;;;5055270;28;20055;-61
2023/05/28 10:30:35;;;;;;;6.45;2.40;;;21.90;57.50;;;;;;5072187;28;20080;-61
2023/05/28 10:33:05;;;;;;;5.13;2.20;;;21.90;57.60;;;;;;5073211;28;20052;-61
2023/05/28 10:35:32;;;;;;;5.03;2.65;;;22.00;57.70;;;;;;5073326;28;20042;-61
2023/05/28 10:38:07;;;;;;;4.65;2.28;;;22.00;57.60;;;;;;5072483;28;20054;-61
2023/05/28 10:40:38;;;;;;;3.75;2.13;;;22.00;57.60;;;;;;5073040;28;20041;-61
2023/05/28 10:43:03;;;;;;;4.90;2.28;;;22.00;57.70;;;;;;5070882;28;20086;-61
2023/05/28 10:45:36;;;;;;;5.40;2.65;;;22.00;57.70;;;;;;5072797;28;20557;-61
2023/05/28 10:48:02;;;;;;;5.15;2.60;;;22.00;57.70;;;;;;5073020;28;20048;-61
2023/05/28 10:50:27;;;;;;;5.28;2.17;;;22.00;57.60;;;;;;5072078;28;20044;-61
2023/05/28 10:53:10;;;;;;;6.18;2.90;;;22.00;57.70;;;;;;5072983;28;20037;-61
2023/05/28 10:55:56;;;;;;;6.40;2.55;;;22.00;57.70;;;;;;5073057;28;20071;-61
2023/05/28 10:58:27;;;;;;;4.93;2.70;;;22.00;57.70;;;;;;5071486;28;20075;-61
2023/05/28 11:01:13;;;;;;;6.07;2.75;;;22.00;57.70;;;;;;5072847;28;20602;-61
2023/05/28 11:03:40;;;;;;;4.75;2.50;;;22.00;57.60;;;;;;5065217;28;20053;-61
2023/05/28 11:06:07;;;;;;;6.07;2.30;;;22.00;57.70;;;;;;5071380;28;20523;-61
2023/05/28 11:08:43;;;;;;;5.90;2.78;;;22.00;57.60;;;;;;5072683;28;20055;-61
2023/05/28 11:11:11;;;;;;;5.18;2.70;;;22.00;57.70;;;;;;5071524;28;20053;-61
2023/05/28 11:13:36;;;;;;;5.05;2.33;;;22.00;57.70;;;;;;5071548;28;20047;-61
2023/05/28 11:16:06;;;;;;;6.35;2.50;;;22.00;57.70;;;;;;5071345;28;20070;-61
2023/05/28 11:18:32;;;;;;;4.80;2.40;;;22.00;57.70;;;;;;5071541;28;20044;-61
2023/05/28 11:21:07;;;;;;;5.72;2.60;;;22.00;57.60;;;;;;5072736;28;20036;-61
2023/05/28 11:23:36;;;;;;;6.70;2.72;;;22.10;57.70;;;;;;5071389;28;20048;-61
2023/05/28 11:26:05;;;;;;;7.18;2.70;;;22.00;57.60;;;;;;5071670;28;20048;-61
2023/05/28 11:28:31;;;;;;;5.90;2.67;;;22.00;57.70;;;;;;5072203;28;20131;-61
2023/05/28 11:30:58;;;;;;;5.07;2.53;;;22.10;57.70;;;;;;5072567;28;20040;-61
2023/05/28 11:33:26;;;;;;;5.03;2.28;;;22.10;57.70;;;;;;5071475;28;20059;-61
2023/05/28 11:36:01;;;;;;;6.97;2.95;;;22.00;57.60;;;;;;5072573;28;20040;-61
2023/05/28 11:38:27;;;;;;;4.82;2.47;;;22.10;57.70;;;;;;5072300;28;20488;-61
2023/05/28 11:41:02;;;;;;;6.05;2.63;;;22.10;57.70;;;;;;5071784;28;20035;-61
2023/05/28 11:43:28;;;;;;;5.28;2.38;;;22.10;57.70;;;;;;5072177;28;20047;-61
2023/05/28 11:46:00;;;;;;;4.47;2.28;;;22.10;57.70;;;;;;5072402;28;20045;-61
2023/05/28 11:48:27;;;;;;;4.97;2.58;;;22.10;57.60;;;;;;5071834;28;20496;-61
2023/05/28 11:51:00;;;;;;;5.30;2.70;;;22.10;57.60;;;;;;5072436;28;20036;-61
2023/05/28 11:53:38;;;;;;;6.25;2.58;;;22.10;57.70;;;;;;5071384;28;20605;-61
2023/05/28 11:56:03;;;;;;;;;;;22.10;57.60;;;;;;5072806;28;20094;-61
2023/05/28 11:58:30;;;;;;;4.82;2.28;;;22.10;57.70;;;;;;5054006;28;20331;-61
2023/05/28 12:00:56;;;;;;;5.97;2.50;;;22.10;57.70;;;;;;5071597;28;20117;-60
2023/05/28 12:03:21;;;;;;;5.45;2.53;;;22.10;57.60;;;;;;5070592;28;20072;-61
2023/05/28 12:05:47;;;;;;;4.55;2.20;;;22.10;57.60;;;;;;5070738;28;20516;-60
2023/05/28 12:08:12;;;;;;;4.95;2.28;;;22.20;57.70;;;;;;5071267;28;20567;-59
2023/05/28 12:10:38;;;;;;;4.10;2.35;;;22.10;57.60;;;;;;5072168;28;20097;-60
2023/05/28 12:13:05;;;;;;;4.50;2.42;;;22.20;57.60;;;;;;5072213;28;20040;-60
2023/05/28 12:15:31;;;;;;;6.78;2.60;;;22.10;57.60;;;;;;5069973;28;20381;-60
2023/05/28 12:17:58;;;;;;;4.40;2.30;;;22.20;57.60;;;;;;5054259;28;20055;-60
2023/05/28 12:20:23;;;;;;;5.50;2.10;;;22.20;57.60;;;;;;5071877;28;20083;-60
2023/05/28 12:23:07;;;;;;;4.90;2.30;;;22.20;57.60;;;;;;5074185;28;20048;-60
2023/05/28 12:25:42;;;;;;;5.22;2.42;;;22.20;57.60;;;;;;5075647;28;20491;-60
2023/05/28 12:28:08;;;;;;;5.60;2.72;;;22.20;57.60;;;;;;5073615;28;20084;-60
2023/05/28 12:30:34;;;;;;;4.50;2.85;;;22.20;57.50;;;;;;5074849;28;20080;-60
2023/05/28 12:32:59;;;;;;;5.05;2.38;;;22.20;57.50;;;;;;5075463;28;20123;-60
2023/05/28 12:35:25;;;;;;;5.88;2.70;;;22.20;57.50;;;;;;5074482;28;20382;-60
2023/05/28 12:37:51;;;;;;;4.25;2.17;;;22.20;58.10;;;;;;5074213;28;20048;-60
2023/05/28 12:40:16;;;;;;;5.65;2.40;;;22.20;57.50;;;;;;5075211;28;20067;-60
2023/05/28 12:42:42;;;;;;;5.10;2.10;;;22.20;57.40;;;;;;5073646;28;20408;-60
2023/05/28 12:45:08;;;;;;;6.13;2.67;;;22.20;57.40;;;;;;5074928;28;20059;-60